sensor_id;sensor_type;location;lat;lon;timestamp;pressure;altitude;pressure_sealevel;temperature;humidity
75418;BME280;63997;52.112;5.420;2024-03-23T00:53:16;101086.75;;;7.45;100.00
75418;BME280;63997;52.112;5.420;2024-03-23T00:55:42;101077.25;;;7.43;100.00
75418;BME280;63997;52.112;5.420;2024-03-23T00:58:08;101072.75;;;7.44;100.00
75418;BME280;63997;52.112;5.420;2024-03-23T01:00:34;101084.13;;;7.45;100.00
75418;BME280;63997;52.112;5.420;2024-03-23T01:02:59;101083.34;;;7.44;100.00
75418;BME280;63997;52.112;5.420;2024-03-23T01:05:25;101079.34;;;7.47;100.00
75418;BME280;63997;52.112;5.420;2024-03-23T01:07:50;101075.09;;;7.46;100.00
75418;BME280;63997;52.112;5.420;2024-03-23T01:10:16;101084.63;;;7.47;100.00
75418;BME280;63997;52.112;5.420;2024-03-23T01:12:42;101073.53;;;7.45;100.00
75418;BME280;63997;52.112;5.420;2024-03-23T01:15:08;101072.75;;;7.44;100.00
75418;BME280;63997;52.112;5.420;2024-03-23T01:17:33;101065.59;;;7.45;100.00
75418;BME280;63997;52.112;5.420;2024-03-23T01:19:59;101057.34;;;7.46;100.00
75418;BME280;63997;52.112;5.420;2024-03-23T01:22:24;101058.75;;;7.43;100.00
75418;BME280;63997;52.112;5.420;2024-03-23T01:24:50;101057.97;;;7.43;100.00
75418;BME280;63997;52.112;5.420;2024-03-23T01:27:15;101051.09;;;7.42;100.00
75418;BME280;63997;52.112;5.420;2024-03-23T01:29:41;101045.28;;;7.40;100.00
75418;BME280;63997;52.112;5.420;2024-03-23T01:32:06;101043.25;;;7.37;100.00
75418;BME280;63997;52.112;5.420;2024-03-23T01:34:32;101042.47;;;7.36;100.00
75418;BME280;63997;52.112;5.420;2024-03-23T01:36:58;101038.44;;;7.39;100.00
75418;BME280;63997;52.112;5.420;2024-03-23T01:39:24;101027.94;;;7.34;100.00
75418;BME280;63997;52.112;5.420;2024-03-23T01:41:50;101027.47;;;7.32;100.00
75418;BME280;63997;52.112;5.420;2024-03-23T01:44:15;101020.69;;;7.26;100.00
75418;BME280;63997;52.112;5.420;2024-03-23T01:46:41;101016.97;;;7.27;100.00
75418;BME280;63997;52.112;5.420;2024-03-23T01:49:08;101018.13;;;7.21;100.00
75418;BME280;63997;52.112;5.420;2024-03-23T01:51:34;101015.66;;;7.10;100.00
75418;BME280;63997;52.112;5.420;2024-03-23T01:54:01;101008.91;;;7.04;100.00
75418;BME280;63997;52.112;5.420;2024-03-23T01:56:34;101015.84;;;7.00;100.00
75418;BME280;63997;52.112;5.420;2024-03-23T01:59:03;101021.19;;;6.95;100.00
75418;BME280;63997;52.112;5.420;2024-03-23T02:01:29;101015.81;;;6.86;100.00
75418;BME280;63997;52.112;5.420;2024-03-23T02:03:55;101010.59;;;6.81;100.00
75418;BME280;63997;52.112;5.420;2024-03-23T02:06:21;101015.66;;;6.78;100.00
75418;BME280;63997;52.112;5.420;2024-03-23T02:08:47;101008.13;;;6.71;100.00
75418;BME280;63997;52.112;5.420;2024-03-23T02:11:14;101010.53;;;6.68;100.00
75418;BME280;63997;52.112;5.420;2024-03-23T02:13:39;101009.84;;;6.62;100.00
75418;BME280;63997;52.112;5.420;2024-03-23T02:16:05;101017.56;;;6.58;100.00
75418;BME280;63997;52.112;5.420;2024-03-23T02:18:34;101014.69;;;6.55;100.00
75418;BME280;63997;52.112;5.420;2024-03-23T02:21:00;101012.13;;;6.50;100.00
75418;BME280;63997;52.112;5.420;2024-03-23T02:23:26;101013.50;;;6.47;100.00
75418;BME280;63997;52.112;5.420;2024-03-23T02:25:51;101005.06;;;6.45;100.00
75418;BME280;63997;52.112;5.420;2024-03-23T02:28:19;101008.28;;;6.42;100.00
75418;BME280;63997;52.112;5.420;2024-03-23T02:30:45;101005.16;;;6.40;100.00
75418;BME280;63997;52.112;5.420;2024-03-23T02:33:11;100996.53;;;6.34;100.00
75418;BME280;63997;52.112;5.420;2024-03-23T02:35:37;100987.31;;;6.32;100.00
75418;BME280;63997;52.112;5.420;2024-03-23T02:38:02;100991.38;;;6.24;100.00
75418;BME280;63997;52.112;5.420;2024-03-23T02:40:28;100993.03;;;6.20;100.00
75418;BME280;63997;52.112;5.420;2024-03-23T02:42:54;100995.44;;;6.17;100.00
75418;BME280;63997;52.112;5.420;2024-03-23T02:45:20;101001.31;;;6.14;100.00
75418;BME280;63997;52.112;5.420;2024-03-23T02:47:45;100997.34;;;6.11;100.00
75418;BME280;63997;52.112;5.420;2024-03-23T02:50:11;100999.03;;;6.07;100.00
75418;BME280;63997;52.112;5.420;2024-03-23T02:52:38;100993.03;;;6.01;100.00
75418;BME280;63997;52.112;5.420;2024-03-23T02:55:04;100998.84;;;5.98;100.00
75418;BME280;63997;52.112;5.420;2024-03-23T02:57:30;100996.28;;;5.93;100.00
75418;BME280;63997;52.112;5.420;2024-03-23T02:59:55;100998.75;;;5.84;100.00
75418;BME280;63997;52.112;5.420;2024-03-23T03:02:21;100998.22;;;5.82;100.00
75418;BME280;63997;52.112;5.420;2024-03-23T03:04:47;100988.50;;;5.78;100.00
75418;BME280;63997;52.112;5.420;2024-03-23T03:07:13;100995.66;;;5.77;100.00
75418;BME280;63997;52.112;5.420;2024-03-23T03:09:39;100989.09;;;5.75;100.00
75418;BME280;63997;52.112;5.420;2024-03-23T03:12:06;100993.88;;;5.73;100.00
75418;BME280;63997;52.112;5.420;2024-03-23T03:14:31;100993.34;;;5.71;100.00
75418;BME280;63997;52.112;5.420;2024-03-23T03:16:57;100986.81;;;5.68;100.00
75418;BME280;63997;52.112;5.420;2024-03-23T03:19:23;100994.78;;;5.63;100.00
75418;BME280;63997;52.112;5.420;2024-03-23T03:21:48;100989.56;;;5.58;100.00
75418;BME280;63997;52.112;5.420;2024-03-23T03:24:14;100997.53;;;5.53;100.00
75418;BME280;63997;52.112;5.420;2024-03-23T03:26:40;100990.69;;;5.52;100.00
75418;BME280;63997;52.112;5.420;2024-03-23T03:29:05;100994.69;;;5.44;100.00
75418;BME280;63997;52.112;5.420;2024-03-23T03:31:31;100995.03;;;5.38;100.00
75418;BME280;63997;52.112;5.420;2024-03-23T03:33:57;100983.81;;;5.27;100.00
75418;BME280;63997;52.112;5.420;2024-03-23T03:36:22;100995.22;;;5.22;100.00
75418;BME280;63997;52.112;5.420;2024-03-23T03:38:48;100984.97;;;5.16;100.00
75418;BME280;63997;52.112;5.420;2024-03-23T03:41:13;100986.63;;;5.12;100.00
75418;BME280;63997;52.112;5.420;2024-03-23T03:43:39;100981.34;;;5.12;100.00
75418;BME280;63997;52.112;5.420;2024-03-23T03:46:04;100985.59;;;5.08;100.00
75418;BME280;63997;52.112;5.420;2024-03-23T03:48:30;100975.09;;;5.02;100.00
75418;BME280;63997;52.112;5.420;2024-03-23T03:50:56;100972.22;;;4.99;100.00
75418;BME280;63997;52.112;5.420;2024-03-23T03:53:21;100961.97;;;4.97;100.00
75418;BME280;63997;52.112;5.420;2024-03-23T03:55:47;100972.28;;;4.94;100.00
75418;BME280;63997;52.112;5.420;2024-03-23T03:58:12;100962.78;;;4.93;100.00
75418;BME280;63997;52.112;5.420;2024-03-23T04:00:38;100964.13;;;4.90;100.00
75418;BME280;63997;52.112;5.420;2024-03-23T04:03:03;100968.09;;;4.88;100.00
75418;BME280;63997;52.112;5.420;2024-03-23T04:05:29;100967.31;;;4.87;100.00
75418;BME280;63997;52.112;5.420;2024-03-23T04:07:55;100963.41;;;4.85;100.00
75418;BME280;63997;52.112;5.420;2024-03-23T04:10:20;100965.78;;;4.81;100.00
75418;BME280;63997;52.112;5.420;2024-03-23T04:12:47;100962.41;;;4.75;100.00
75418;BME280;63997;52.112;5.420;2024-03-23T04:15:13;100959.28;;;4.73;100.00
75418;BME280;63997;52.112;5.420;2024-03-23T04:17:38;100953.50;;;4.71;100.00
75418;BME280;63997;52.112;5.420;2024-03-23T04:20:05;100957.47;;;4.69;100.00
75418;BME280;63997;52.112;5.420;2024-03-23T04:22:35;100953.81;;;4.65;100.00
75418;BME280;63997;52.112;5.420;2024-03-23T04:25:00;100945.41;;;4.63;100.00
75418;BME280;63997;52.112;5.420;2024-03-23T04:27:35;100944.91;;;4.61;100.00
75418;BME280;63997;52.112;5.420;2024-03-23T04:30:01;100951.22;;;4.60;100.00
75418;BME280;63997;52.112;5.420;2024-03-23T04:32:27;100950.16;;;4.61;100.00
75418;BME280;63997;52.112;5.420;2024-03-23T04:34:53;100954.38;;;4.62;100.00
75418;BME280;63997;52.112;5.420;2024-03-23T04:37:23;100948.31;;;4.61;100.00
75418;BME280;63997;52.112;5.420;2024-03-23T04:39:48;100943.06;;;4.61;100.00
75418;BME280;63997;52.112;5.420;2024-03-23T04:42:15;100947.78;;;4.59;100.00
75418;BME280;63997;52.112;5.420;2024-03-23T04:44:40;100945.44;;;4.58;100.00
75418;BME280;63997;52.112;5.420;2024-03-23T04:47:06;100948.88;;;4.58;100.00
75418;BME280;63997;52.112;5.420;2024-03-23T04:49:32;100948.88;;;4.58;100.00
75418;BME280;63997;52.112;5.420;2024-03-23T04:51:57;100952.28;;;4.59;100.00
75418;BME280;63997;52.112;5.420;2024-03-23T04:54:23;100952.53;;;4.62;100.00
75418;BME280;63997;52.112;5.420;2024-03-23T04:56:49;100947.53;;;4.61;100.00
75418;BME280;63997;52.112;5.420;2024-03-23T04:59:15;100943.88;;;4.57;100.00
75418;BME280;63997;52.112;5.420;2024-03-23T05:01:40;100942.84;;;4.53;100.00
75418;BME280;63997;52.112;5.420;2024-03-23T05:04:08;100942.88;;;4.47;100.00
75418;BME280;63997;52.112;5.420;2024-03-23T05:06:33;100946.59;;;4.46;100.00
75418;BME280;63997;52.112;5.420;2024-03-23T05:09:00;100939.75;;;4.45;100.00
75418;BME280;63997;52.112;5.420;2024-03-23T05:11:28;100949.25;;;4.41;100.00
75418;BME280;63997;52.112;5.420;2024-03-23T05:13:53;100945.06;;;4.40;100.00
75418;BME280;63997;52.112;5.420;2024-03-23T05:16:19;100937.94;;;4.41;100.00
75418;BME280;63997;52.112;5.420;2024-03-23T05:18:44;100945.59;;;4.37;100.00
75418;BME280;63997;52.112;5.420;2024-03-23T05:21:10;100942.72;;;4.34;100.00
75418;BME280;63997;52.112;5.420;2024-03-23T05:23:35;100943.56;;;4.29;100.00
75418;BME280;63997;52.112;5.420;2024-03-23T05:26:01;100952.78;;;4.27;100.00
75418;BME280;63997;52.112;5.420;2024-03-23T05:28:26;100945.16;;;4.25;100.00
75418;BME280;63997;52.112;5.420;2024-03-23T05:30:53;100947.28;;;4.23;100.00
75418;BME280;63997;52.112;5.420;2024-03-23T05:33:19;100943.91;;;4.17;100.00
75418;BME280;63997;52.112;5.420;2024-03-23T05:35:45;100947.59;;;4.16;100.00
75418;BME280;63997;52.112;5.420;2024-03-23T05:38:11;100947.31;;;4.18;100.00
75418;BME280;63997;52.112;5.420;2024-03-23T05:40:37;100955.72;;;4.20;100.00
75418;BME280;63997;52.112;5.420;2024-03-23T05:43:06;100954.94;;;4.19;100.00
75418;BME280;63997;52.112;5.420;2024-03-23T05:45:32;100955.19;;;4.23;100.00
75418;BME280;63997;52.112;5.420;2024-03-23T05:47:58;100953.56;;;4.27;100.00
75418;BME280;63997;52.112;5.420;2024-03-23T05:50:24;100950.34;;;4.35;100.00
75418;BME280;63997;52.112;5.420;2024-03-23T05:52:50;100947.66;;;4.45;100.00
75418;BME280;63997;52.112;5.420;2024-03-23T05:55:16;100952.59;;;4.52;100.00
75418;BME280;63997;52.112;5.420;2024-03-23T05:57:41;100945.44;;;4.58;100.00
75418;BME280;63997;52.112;5.420;2024-03-23T06:00:07;100944.13;;;4.60;100.00
75418;BME280;63997;52.112;5.420;2024-03-23T06:02:44;100944.34;;;4.64;100.00
75418;BME280;63997;52.112;5.420;2024-03-23T06:05:11;100937.75;;;4.66;100.00
75418;BME280;63997;52.112;5.420;2024-03-23T06:07:37;100943.22;;;4.70;100.00
75418;BME280;63997;52.112;5.420;2024-03-23T06:10:07;100935.31;;;4.70;100.00
75418;BME280;63997;52.112;5.420;2024-03-23T06:12:32;100940.59;;;4.70;100.00
75418;BME280;63997;52.112;5.420;2024-03-23T06:14:58;100949.81;;;4.72;100.00
75418;BME280;63997;52.112;5.420;2024-03-23T06:17:23;100943.47;;;4.73;100.00
75418;BME280;63997;52.112;5.420;2024-03-23T06:19:49;100947.19;;;4.72;100.00
75418;BME280;63997;52.112;5.420;2024-03-23T06:22:15;100943.75;;;4.72;100.00
75418;BME280;63997;52.112;5.420;2024-03-23T06:24:41;100945.31;;;4.73;100.00
75418;BME280;63997;52.112;5.420;2024-03-23T06:27:06;100954.13;;;4.87;100.00
75418;BME280;63997;52.112;5.420;2024-03-23T06:29:32;100932.81;;;4.89;100.00
75418;BME280;63997;52.112;5.420;2024-03-23T06:31:57;100940.28;;;5.06;100.00
75418;BME280;63997;52.112;5.420;2024-03-23T06:34:23;100927.75;;;6.07;100.00
75418;BME280;63997;52.112;5.420;2024-03-23T06:36:49;100928.19;;;6.47;100.00
75418;BME280;63997;52.112;5.420;2024-03-23T06:39:16;100921.22;;;6.83;100.00
75418;BME280;63997;52.112;5.420;2024-03-23T06:41:54;100918.91;;;7.37;100.00
75418;BME280;63997;52.112;5.420;2024-03-23T06:44:20;100917.09;;;8.10;100.00
75418;BME280;63997;52.112;5.420;2024-03-23T06:46:45;100925.03;;;9.83;100.00
75418;BME280;63997;52.112;5.420;2024-03-23T06:49:11;100910.31;;;11.39;93.04
75418;BME280;63997;52.112;5.420;2024-03-23T06:51:37;100914.44;;;12.00;85.01
75418;BME280;63997;52.112;5.420;2024-03-23T06:54:05;100906.88;;;12.68;82.65
75418;BME280;63997;52.112;5.420;2024-03-23T06:56:30;100916.38;;;13.91;76.52
75418;BME280;63997;52.112;5.420;2024-03-23T06:58:57;100913.75;;;14.79;69.69
75418;BME280;63997;52.112;5.420;2024-03-23T07:01:22;100916.66;;;14.58;69.39
75418;BME280;63997;52.112;5.420;2024-03-23T07:03:48;100917.97;;;13.80;70.42
75418;BME280;63997;52.112;5.420;2024-03-23T07:06:14;100922.84;;;13.50;70.84
75418;BME280;63997;52.112;5.420;2024-03-23T07:08:40;100930.72;;;13.46;71.22
75418;BME280;63997;52.112;5.420;2024-03-23T07:11:05;100918.84;;;14.84;69.04
75418;BME280;63997;52.112;5.420;2024-03-23T07:13:31;100918.38;;;16.42;64.19
75418;BME280;63997;52.112;5.420;2024-03-23T07:15:57;100914.47;;;17.61;60.09
75418;BME280;63997;52.112;5.420;2024-03-23T07:18:23;100920.22;;;18.23;55.93
75418;BME280;63997;52.112;5.420;2024-03-23T07:20:56;100921.13;;;18.01;55.01
75418;BME280;63997;52.112;5.420;2024-03-23T07:23:22;100914.13;;;17.93;54.80
75418;BME280;63997;52.112;5.420;2024-03-23T07:26:02;100921.19;;;18.42;53.98
75418;BME280;63997;52.112;5.420;2024-03-23T07:28:28;100921.44;;;17.62;54.38
75418;BME280;63997;52.112;5.420;2024-03-23T07:31:10;100926.25;;;16.54;55.92
75418;BME280;63997;52.112;5.420;2024-03-23T07:33:41;100933.06;;;16.48;56.68
75418;BME280;63997;52.112;5.420;2024-03-23T07:36:07;100923.19;;;16.33;58.51
75418;BME280;63997;52.112;5.420;2024-03-23T07:38:32;100928.22;;;16.15;58.45
75418;BME280;63997;52.112;5.420;2024-03-23T07:41:09;100930.75;;;14.87;62.19
75418;BME280;63997;52.112;5.420;2024-03-23T07:43:35;100934.63;;;14.58;63.19
75418;BME280;63997;52.112;5.420;2024-03-23T07:46:01;100937.59;;;13.72;64.11
75418;BME280;63997;52.112;5.420;2024-03-23T07:48:28;100935.81;;;12.90;67.07
75418;BME280;63997;52.112;5.420;2024-03-23T07:51:07;100929.50;;;12.95;67.22
75418;BME280;63997;52.112;5.420;2024-03-23T07:53:34;100932.69;;;12.31;69.66
75418;BME280;63997;52.112;5.420;2024-03-23T07:58:29;100936.91;;;11.69;72.28
75418;BME280;63997;52.112;5.420;2024-03-23T08:00:56;100940.19;;;11.45;73.55
75418;BME280;63997;52.112;5.420;2024-03-23T08:03:22;100937.47;;;11.24;75.69
75418;BME280;63997;52.112;5.420;2024-03-23T08:05:48;100936.50;;;11.29;76.25
75418;BME280;63997;52.112;5.420;2024-03-23T08:08:14;100933.97;;;10.94;74.90
75418;BME280;63997;52.112;5.420;2024-03-23T08:10:49;100934.97;;;10.81;74.99
75418;BME280;63997;52.112;5.420;2024-03-23T08:13:15;100935.81;;;10.55;76.18
75418;BME280;63997;52.112;5.420;2024-03-23T08:15:41;100922.97;;;10.57;75.84
75418;BME280;63997;52.112;5.420;2024-03-23T08:18:07;100931.94;;;10.44;76.27
75418;BME280;63997;52.112;5.420;2024-03-23T08:20:32;100932.72;;;10.36;76.35
75418;BME280;63997;52.112;5.420;2024-03-23T08:22:58;100929.28;;;10.36;77.07
75418;BME280;63997;52.112;5.420;2024-03-23T08:25:24;100929.75;;;10.29;77.66
75418;BME280;63997;52.112;5.420;2024-03-23T08:27:49;100931.31;;;10.21;78.27
75418;BME280;63997;52.112;5.420;2024-03-23T08:30:15;100931.63;;;10.37;79.22
75418;BME280;63997;52.112;5.420;2024-03-23T08:32:41;100929.06;;;10.67;79.25
75418;BME280;63997;52.112;5.420;2024-03-23T08:35:08;100929.22;;;11.17;77.13
75418;BME280;63997;52.112;5.420;2024-03-23T08:37:33;100936.88;;;11.48;74.35
75418;BME280;63997;52.112;5.420;2024-03-23T08:39:59;100929.16;;;10.88;74.04
75418;BME280;63997;52.112;5.420;2024-03-23T08:42:24;100929.56;;;10.43;75.14
75418;BME280;63997;52.112;5.420;2024-03-23T08:44:50;100927.69;;;10.52;76.06
75418;BME280;63997;52.112;5.420;2024-03-23T08:47:16;100923.94;;;10.53;77.52
75418;BME280;63997;52.112;5.420;2024-03-23T08:49:42;100922.78;;;10.71;77.72
75418;BME280;63997;52.112;5.420;2024-03-23T08:52:07;100930.38;;;10.99;76.87
75418;BME280;63997;52.112;5.420;2024-03-23T08:54:33;100937.63;;;10.90;74.89
75418;BME280;63997;52.112;5.420;2024-03-23T08:57:00;100932.19;;;10.69;75.03
75418;BME280;63997;52.112;5.420;2024-03-23T08:59:25;100932.16;;;10.77;76.89
75418;BME280;63997;52.112;5.420;2024-03-23T09:01:51;100922.63;;;11.74;75.78
75418;BME280;63997;52.112;5.420;2024-03-23T09:04:17;100917.84;;;12.42;72.18
75418;BME280;63997;52.112;5.420;2024-03-23T09:06:43;100909.66;;;12.59;69.06
75418;BME280;63997;52.112;5.420;2024-03-23T09:09:08;100903.00;;;11.99;69.27
75418;BME280;63997;52.112;5.420;2024-03-23T09:11:34;100915.50;;;11.78;70.42
75418;BME280;63997;52.112;5.420;2024-03-23T09:14:00;100919.50;;;11.93;71.45
75418;BME280;63997;52.112;5.420;2024-03-23T09:16:26;100921.78;;;12.03;70.73
75418;BME280;63997;52.112;5.420;2024-03-23T09:18:52;100920.94;;;12.11;71.73
75418;BME280;63997;52.112;5.420;2024-03-23T09:21:17;100917.09;;;11.79;72.42
75418;BME280;63997;52.112;5.420;2024-03-23T09:23:43;100910.56;;;11.17;74.19
75418;BME280;63997;52.112;5.420;2024-03-23T09:26:09;100914.13;;;10.83;76.50
75418;BME280;63997;52.112;5.420;2024-03-23T09:28:35;100913.31;;;10.36;76.14
75418;BME280;63997;52.112;5.420;2024-03-23T09:31:04;100921.78;;;9.94;77.30
75418;BME280;63997;52.112;5.420;2024-03-23T09:33:30;100916.75;;;9.75;77.98
75418;BME280;63997;52.112;5.420;2024-03-23T09:35:55;100912.19;;;9.59;79.06
75418;BME280;63997;52.112;5.420;2024-03-23T09:38:22;100916.25;;;9.56;79.59
75418;BME280;63997;52.112;5.420;2024-03-23T09:40:50;100913.03;;;9.76;82.19
75418;BME280;63997;52.112;5.420;2024-03-23T09:43:18;100915.19;;;10.18;84.09
75418;BME280;63997;52.112;5.420;2024-03-23T09:45:45;100916.78;;;10.27;83.37
75418;BME280;63997;52.112;5.420;2024-03-23T09:48:11;100926.75;;;9.96;82.91
75418;BME280;63997;52.112;5.420;2024-03-23T09:50:41;100935.69;;;9.25;81.49
75418;BME280;63997;52.112;5.420;2024-03-23T09:53:07;100911.34;;;8.84;81.75
75418;BME280;63997;52.112;5.420;2024-03-23T09:55:34;100922.28;;;8.60;82.19
75418;BME280;63997;52.112;5.420;2024-03-23T09:58:02;100912.25;;;8.48;83.33
75418;BME280;63997;52.112;5.420;2024-03-23T10:00:27;100920.34;;;8.29;83.57
75418;BME280;63997;52.112;5.420;2024-03-23T10:02:56;100917.94;;;8.41;85.44
75418;BME280;63997;52.112;5.420;2024-03-23T10:05:28;100910.09;;;8.81;87.10
75418;BME280;63997;52.112;5.420;2024-03-23T10:07:54;100909.09;;;9.08;85.13
75418;BME280;63997;52.112;5.420;2024-03-23T10:10:19;100903.81;;;9.17;86.17
75418;BME280;63997;52.112;5.420;2024-03-23T10:12:50;100899.97;;;9.40;87.29
75418;BME280;63997;52.112;5.420;2024-03-23T10:15:20;100892.97;;;9.53;84.70
75418;BME280;63997;52.112;5.420;2024-03-23T10:17:47;100897.22;;;9.71;82.35
75418;BME280;63997;52.112;5.420;2024-03-23T10:20:13;100892.69;;;9.98;82.43
75418;BME280;63997;52.112;5.420;2024-03-23T10:22:44;100895.03;;;10.17;80.87
75418;BME280;63997;52.112;5.420;2024-03-23T10:25:10;100913.94;;;9.98;80.43
75418;BME280;63997;52.112;5.420;2024-03-23T10:27:36;100896.72;;;9.52;79.16
75418;BME280;63997;52.112;5.420;2024-03-23T10:30:10;100916.19;;;9.21;79.85
75418;BME280;63997;52.112;5.420;2024-03-23T10:32:37;100912.50;;;9.48;82.78
75418;BME280;63997;52.112;5.420;2024-03-23T10:35:19;100904.44;;;9.88;83.36
75418;BME280;63997;52.112;5.420;2024-03-23T10:37:45;100889.41;;;10.10;82.76
75418;BME280;63997;52.112;5.420;2024-03-23T10:40:17;100882.53;;;10.17;79.56
75418;BME280;63997;52.112;5.420;2024-03-23T10:42:46;100891.44;;;10.21;80.27
75418;BME280;63997;52.112;5.420;2024-03-23T10:45:12;100900.03;;;10.18;79.37
75418;BME280;63997;52.112;5.420;2024-03-23T10:47:38;100902.38;;;10.11;78.77
75418;BME280;63997;52.112;5.420;2024-03-23T10:50:04;100901.28;;;9.95;78.02
75418;BME280;63997;52.112;5.420;2024-03-23T10:52:33;100914.72;;;9.72;77.94
75418;BME280;63997;52.112;5.420;2024-03-23T10:55:00;100934.47;;;9.32;78.54
75418;BME280;63997;52.112;5.420;2024-03-23T10:57:34;100922.53;;;8.81;80.14
75418;BME280;63997;52.112;5.420;2024-03-23T11:00:03;100920.00;;;8.44;79.95
75418;BME280;63997;52.112;5.420;2024-03-23T11:02:29;100921.72;;;8.27;79.96
75418;BME280;63997;52.112;5.420;2024-03-23T11:04:55;100917.13;;;8.18;81.64
75418;BME280;63997;52.112;5.420;2024-03-23T11:09:52;100909.56;;;8.70;84.41
75418;BME280;63997;52.112;5.420;2024-03-23T11:14:47;100894.84;;;9.44;82.95
75418;BME280;63997;52.112;5.420;2024-03-23T11:17:23;100906.59;;;9.77;84.13
75418;BME280;63997;52.112;5.420;2024-03-23T11:20:15;100894.25;;;10.07;83.52
75418;BME280;63997;52.112;5.420;2024-03-23T11:22:56;100887.97;;;10.47;81.45
75418;BME280;63997;52.112;5.420;2024-03-23T11:25:23;100889.09;;;10.11;78.71
75418;BME280;63997;52.112;5.420;2024-03-23T11:27:53;100896.91;;;9.73;80.84
75418;BME280;63997;52.112;5.420;2024-03-23T11:30:27;100900.50;;;9.68;81.95
75418;BME280;63997;52.112;5.420;2024-03-23T11:32:57;100890.03;;;9.98;82.40
75418;BME280;63997;52.112;5.420;2024-03-23T11:35:30;100885.31;;;10.21;81.76
75418;BME280;63997;52.112;5.420;2024-03-23T11:38:05;100884.25;;;10.39;81.48
75418;BME280;63997;52.112;5.420;2024-03-23T11:40:32;100873.25;;;10.58;81.27
75418;BME280;63997;52.112;5.420;2024-03-23T11:43:03;100869.63;;;11.01;79.40
75418;BME280;63997;52.112;5.420;2024-03-23T11:45:33;100869.91;;;11.08;77.85
75418;BME280;63997;52.112;5.420;2024-03-23T11:48:17;100865.88;;;11.02;75.83
75418;BME280;63997;52.112;5.420;2024-03-23T11:50:44;100868.28;;;10.86;76.96
75418;BME280;63997;52.112;5.420;2024-03-23T11:53:21;100869.25;;;11.11;73.20
75418;BME280;63997;52.112;5.420;2024-03-23T11:55:56;100866.09;;;11.18;75.49
75418;BME280;63997;52.112;5.420;2024-03-23T11:58:26;100856.91;;;11.57;76.41
75418;BME280;63997;52.112;5.420;2024-03-23T12:00:58;100868.81;;;11.80;71.31
75418;BME280;63997;52.112;5.420;2024-03-23T12:03:25;100855.94;;;11.82;69.90
75418;BME280;63997;52.112;5.420;2024-03-23T12:05:53;100858.66;;;11.95;71.17
75418;BME280;63997;52.112;5.420;2024-03-23T12:08:30;100852.72;;;12.10;70.56
75418;BME280;63997;52.112;5.420;2024-03-23T12:11:07;100865.25;;;11.97;69.63
75418;BME280;63997;52.112;5.420;2024-03-23T12:13:34;100855.72;;;11.66;70.32
75418;BME280;63997;52.112;5.420;2024-03-23T12:16:19;100872.56;;;11.79;70.61
75418;BME280;63997;52.112;5.420;2024-03-23T12:18:47;100848.78;;;11.74;71.62
75418;BME280;63997;52.112;5.420;2024-03-23T12:21:14;100860.34;;;11.36;70.62
75418;BME280;63997;52.112;5.420;2024-03-23T12:23:41;100856.16;;;11.06;70.05
75418;BME280;63997;52.112;5.420;2024-03-23T12:26:07;100854.97;;;11.16;70.34
75418;BME280;63997;52.112;5.420;2024-03-23T12:28:35;100841.81;;;11.19;68.78
75418;BME280;63997;52.112;5.420;2024-03-23T12:31:03;100843.91;;;11.05;67.04
75418;BME280;63997;52.112;5.420;2024-03-23T12:33:28;100840.53;;;10.96;68.70
75418;BME280;63997;52.112;5.420;2024-03-23T12:35:54;100833.72;;;11.36;70.84
75418;BME280;63997;52.112;5.420;2024-03-23T12:38:19;100828.84;;;11.59;70.02
75418;BME280;63997;52.112;5.420;2024-03-23T12:40:49;100833.72;;;11.57;67.21
75418;BME280;63997;52.112;5.420;2024-03-23T12:43:15;100847.94;;;11.11;65.96
75418;BME280;63997;52.112;5.420;2024-03-23T12:45:41;100834.09;;;10.67;67.83
75418;BME280;63997;52.112;5.420;2024-03-23T12:48:06;100836.75;;;10.67;68.08
75418;BME280;63997;52.112;5.420;2024-03-23T12:50:32;100827.00;;;10.80;69.63
75418;BME280;63997;52.112;5.420;2024-03-23T12:52:58;100840.91;;;10.85;67.75
75418;BME280;63997;52.112;5.420;2024-03-23T12:55:23;100835.66;;;10.68;67.85
75418;BME280;63997;52.112;5.420;2024-03-23T12:57:49;100822.38;;;10.98;69.61
75418;BME280;63997;52.112;5.420;2024-03-23T13:00:15;100829.56;;;11.48;69.75
75418;BME280;63997;52.112;5.420;2024-03-23T13:02:44;100828.38;;;11.78;68.35
75418;BME280;63997;52.112;5.420;2024-03-23T13:05:09;100820.19;;;11.83;67.55
75418;BME280;63997;52.112;5.420;2024-03-23T13:07:35;100822.84;;;12.16;68.52
75418;BME280;63997;52.112;5.420;2024-03-23T13:10:03;100816.34;;;12.26;66.00
75418;BME280;63997;52.112;5.420;2024-03-23T13:12:29;100828.06;;;11.80;65.43
75418;BME280;63997;52.112;5.420;2024-03-23T13:14:54;100818.84;;;11.35;66.08
75418;BME280;63997;52.112;5.420;2024-03-23T13:17:20;100836.25;;;11.03;66.87
75418;BME280;63997;52.112;5.420;2024-03-23T13:19:46;100830.38;;;11.19;68.68
75418;BME280;63997;52.112;5.420;2024-03-23T13:22:12;100835.16;;;11.04;66.92
75418;BME280;63997;52.112;5.420;2024-03-23T13:24:38;100843.75;;;10.72;66.66
75418;BME280;63997;52.112;5.420;2024-03-23T13:27:04;100868.13;;;10.36;67.90
75418;BME280;63997;52.112;5.420;2024-03-23T13:29:33;100894.59;;;9.89;67.86
75418;BME280;63997;52.112;5.420;2024-03-23T13:32:00;100891.72;;;9.50;70.04
75418;BME280;63997;52.112;5.420;2024-03-23T13:34:25;100884.19;;;9.26;70.81
75418;BME280;63997;52.112;5.420;2024-03-23T13:36:51;100863.09;;;9.21;73.72
75418;BME280;63997;52.112;5.420;2024-03-23T13:39:17;100852.22;;;9.58;74.05
75418;BME280;63997;52.112;5.420;2024-03-23T13:41:45;100850.97;;;9.90;73.91
75418;BME280;63997;52.112;5.420;2024-03-23T13:44:12;100854.41;;;9.90;72.67
75418;BME280;63997;52.112;5.420;2024-03-23T13:46:40;100838.63;;;10.02;73.08
75418;BME280;63997;52.112;5.420;2024-03-23T13:49:23;100836.84;;;10.41;72.37